Time;durP1;ratioP1;P1;durP2;ratioP2;P2;SDS_P1;SDS_P2;PMS_P1;PMS_P2;Temp;Humidity;BMP_temperature;BMP_pressure;BME280_temperature;BME280_humidity;BME280_pressure;Samples;Min_cycle;Max_cycle;Signal;HPM_P1;HPM_P2
2021/12/28 00:01:21;;;;;;;5.20;0.80;;;22.00;99.90;;;;;;5053209;28;20213;-75
2021/12/28 00:03:51;;;;;;;3.88;1.20;;;21.90;99.90;;;;;;5052368;28;20193;-74
2021/12/28 00:06:22;;;;;;;8.98;1.00;;;21.90;99.90;;;;;;5052134;28;20653;-74
2021/12/28 00:08:53;;;;;;;5.25;0.90;;;22.00;99.90;;;;;;5052852;28;20208;-74
2021/12/28 00:11:24;;;;;;;6.85;1.02;;;22.00;99.90;;;;;;5052469;28;20236;-75
2021/12/28 00:14:01;;;;;;;5.05;0.80;;;22.00;99.90;;;;;;5053028;28;20198;-75
2021/12/28 00:17:58;;;;;;;5.75;0.70;;;22.10;99.90;;;;;;5051299;28;20193;-74
2021/12/28 00:19:24;;;;;;;7.72;0.80;;;21.90;99.90;;;;;;5050401;28;20190;-75
2021/12/28 00:21:54;;;;;;;6.53;1.20;;;21.80;99.90;;;;;;5056946;28;20217;-76
2021/12/28 00:24:25;;;;;;;4.60;0.80;;;21.60;99.90;;;;;;5056721;28;20197;-76
2021/12/28 00:26:56;;;;;;;3.72;1.05;;;21.40;99.90;;;;;;5056152;28;20186;-75
2021/12/28 00:29:29;;;;;;;5.20;0.90;;;21.60;99.90;;;;;;5055800;28;20193;-74
2021/12/28 00:32:00;;;;;;;4.10;0.77;;;21.80;99.90;;;;;;5056916;28;20201;-75
2021/12/28 00:34:31;;;;;;;3.35;0.75;;;21.80;99.90;;;;;;5052011;28;20239;-75
2021/12/28 00:37:02;;;;;;;3.50;0.88;;;21.80;99.90;;;;;;5056618;28;20201;-75
2021/12/28 00:39:32;;;;;;;5.28;0.90;;;21.70;99.90;;;;;;5050457;28;20221;-75
2021/12/28 00:42:03;;;;;;;6.32;1.00;;;21.90;99.90;;;;;;5056450;28;20278;-75
2021/12/28 00:44:36;;;;;;;3.28;0.70;;;22.10;99.90;;;;;;5056510;28;20640;-76
2021/12/28 00:47:10;;;;;;;4.03;0.80;;;22.20;99.90;;;;;;5056258;28;20189;-76
2021/12/28 00:49:47;;;;;;;6.80;0.90;;;21.90;99.90;;;;;;5056063;28;20238;-76
2021/12/28 00:52:18;;;;;;;4.95;0.80;;;21.70;99.90;;;;;;5046847;28;20657;-76
2021/12/28 00:54:48;;;;;;;7.13;0.75;;;21.50;99.90;;;;;;5050831;28;20613;-74
2021/12/28 00:57:19;;;;;;;4.68;1.00;;;21.40;99.90;;;;;;5043637;28;20193;-75
2021/12/28 00:59:51;;;;;;;4.50;1.00;;;21.40;99.90;;;;;;5053338;28;20213;-75
2021/12/28 01:02:22;;;;;;;9.05;1.08;;;21.20;99.90;;;;;;5050812;28;20225;-75
2021/12/28 01:04:53;;;;;;;6.45;0.80;;;21.00;99.90;;;;;;5050806;28;20201;-73
2021/12/28 01:07:23;;;;;;;3.40;0.70;;;21.10;99.90;;;;;;5054477;28;20194;-74
2021/12/28 01:09:54;;;;;;;3.83;0.90;;;20.50;99.90;;;;;;5055664;28;20271;-76
2021/12/28 01:12:25;;;;;;;6.57;1.33;;;20.30;99.90;;;;;;5055480;28;20201;-74
2021/12/28 01:14:57;;;;;;;4.15;0.75;;;20.00;99.90;;;;;;5055331;28;20193;-75
2021/12/28 01:17:30;;;;;;;4.50;0.85;;;19.70;99.90;;;;;;5050681;28;20221;-74
2021/12/28 01:20:01;;;;;;;3.72;0.77;;;19.40;99.90;;;;;;5050830;28;20654;-73
2021/12/28 01:22:32;;;;;;;3.95;0.85;;;19.30;99.90;;;;;;5054395;28;20209;-75
2021/12/28 01:25:02;;;;;;;4.43;0.90;;;19.20;99.90;;;;;;5054391;28;20602;-74
2021/12/28 01:27:33;;;;;;;4.55;0.80;;;19.00;99.90;;;;;;5053373;28;20201;-74
2021/12/28 01:30:09;;;;;;;6.63;0.95;;;18.90;99.90;;;;;;5054231;28;20186;-74
2021/12/28 01:32:40;;;;;;;4.53;0.90;;;18.90;99.90;;;;;;5046867;28;20988;-75
2021/12/28 01:35:13;;;;;;;5.00;1.02;;;19.00;99.90;;;;;;5052331;28;20201;-74
2021/12/28 01:37:44;;;;;;;4.47;0.65;;;19.20;99.90;;;;;;5047840;28;20225;-74
2021/12/28 01:40:17;;;;;;;5.82;1.10;;;19.20;99.90;;;;;;5054945;28;20723;-75
2021/12/28 01:43:10;;;;;;;4.80;0.90;;;19.20;99.90;;;;;;5054513;28;20206;-74
2021/12/28 01:45:47;;;;;;;4.57;0.90;;;19.20;99.90;;;;;;5051614;28;20621;-73
2021/12/28 01:48:20;;;;;;;6.88;1.00;;;19.30;99.90;;;;;;5054948;28;20190;-75
2021/12/28 01:50:52;;;;;;;8.38;1.42;;;19.30;99.90;;;;;;5043060;28;20198;-75
2021/12/28 01:53:23;;;;;;;4.38;0.98;;;19.30;99.90;;;;;;5053950;28;20713;-72
2021/12/28 01:55:55;;;;;;;6.32;0.70;;;19.30;99.90;;;;;;5054184;28;20681;-75
2021/12/28 01:58:26;;;;;;;5.97;1.02;;;19.40;99.90;;;;;;5054692;28;20243;-74
2021/12/28 02:00:59;;;;;;;4.90;0.77;;;19.50;99.90;;;;;;5054418;28;20205;-75
2021/12/28 02:03:32;;;;;;;3.58;0.93;;;19.60;99.90;;;;;;5054261;28;20221;-74
2021/12/28 02:06:03;;;;;;;5.22;1.05;;;19.70;99.90;;;;;;5054151;28;20198;-75
2021/12/28 02:08:34;;;;;;;3.33;1.00;;;19.90;99.90;;;;;;5053958;28;20330;-74
2021/12/28 02:11:05;;;;;;;5.22;0.88;;;20.20;99.90;;;;;;5053673;28;20225;-74
2021/12/28 02:13:35;;;;;;;9.68;1.17;;;20.40;99.90;;;;;;5054300;28;20649;-74
2021/12/28 02:16:08;;;;;;;4.13;0.95;;;20.50;99.90;;;;;;5059128;28;20235;-75
2021/12/28 02:18:39;;;;;;;7.13;0.98;;;20.60;99.90;;;;;;5054557;28;20181;-74
2021/12/28 02:21:12;;;;;;;5.63;1.10;;;20.60;99.90;;;;;;5053752;28;20920;-74
2021/12/28 02:23:43;;;;;;;4.55;0.93;;;20.70;99.90;;;;;;5053292;28;20201;-73
2021/12/28 02:26:13;;;;;;;5.78;0.90;;;20.40;99.90;;;;;;5053569;28;20205;-74
2021/12/28 02:28:44;;;;;;;4.13;0.90;;;20.20;99.90;;;;;;5053309;28;20279;-74
2021/12/28 02:31:15;;;;;;;5.28;1.00;;;19.80;99.90;;;;;;5053471;28;20710;-75
2021/12/28 02:33:48;;;;;;;6.05;1.33;;;19.60;99.90;;;;;;5054530;28;20193;-74
2021/12/28 02:36:22;;;;;;;5.72;0.93;;;19.70;99.90;;;;;;5053765;28;20189;-75
2021/12/28 02:38:52;;;;;;;9.15;1.58;;;19.80;99.90;;;;;;5052403;28;20274;-74
2021/12/28 02:41:23;;;;;;;5.38;1.10;;;19.70;99.90;;;;;;5053685;28;20204;-75
2021/12/28 02:44:00;;;;;;;9.75;1.38;;;19.90;99.90;;;;;;5050305;28;20243;-74
2021/12/28 02:46:31;;;;;;;5.47;0.90;;;20.00;99.90;;;;;;5045633;28;20247;-74
2021/12/28 02:49:01;;;;;;;5.25;0.95;;;20.30;99.90;;;;;;5050901;28;20201;-76
2021/12/28 02:51:34;;;;;;;4.32;0.75;;;20.50;99.90;;;;;;5053722;28;20227;-75
2021/12/28 02:54:05;;;;;;;3.42;0.68;;;20.60;99.90;;;;;;5052999;28;20182;-75
2021/12/28 02:56:35;;;;;;;3.53;0.70;;;20.50;99.90;;;;;;5045827;28;20239;-75
2021/12/28 02:59:06;;;;;;;2.75;0.60;;;20.50;99.90;;;;;;5049993;28;20296;-75
2021/12/28 03:01:40;;;;;;;4.43;1.73;;;20.60;99.90;;;;;;5044478;28;20197;-76
2021/12/28 03:04:11;;;;;;;4.70;0.80;;;20.80;99.90;;;;;;5046166;28;20208;-74
2021/12/28 03:06:43;;;;;;;3.80;1.00;;;20.80;99.90;;;;;;5051988;28;20193;-75
2021/12/28 03:09:15;;;;;;;5.90;0.75;;;20.80;99.90;;;;;;5053696;28;20202;-74
2021/12/28 03:11:46;;;;;;;3.13;0.60;;;20.80;99.90;;;;;;5054386;28;20261;-74
2021/12/28 03:14:17;;;;;;;2.70;0.70;;;20.70;99.90;;;;;;5053149;28;20189;-74
2021/12/28 03:16:48;;;;;;;2.13;0.50;;;20.50;99.90;;;;;;5053470;28;20582;-74
2021/12/28 03:19:18;;;;;;;5.38;0.77;;;20.40;99.90;;;;;;5053597;28;20638;-74
2021/12/28 03:21:52;;;;;;;1.98;0.50;;;20.30;99.90;;;;;;5052830;28;20243;-75
2021/12/28 03:24:23;;;;;;;2.58;0.55;;;20.30;99.90;;;;;;5048299;28;20260;-74
2021/12/28 03:26:54;;;;;;;4.03;0.70;;;20.20;99.90;;;;;;5038336;28;20190;-75
2021/12/28 03:29:24;;;;;;;3.90;0.60;;;20.20;99.90;;;;;;5039753;28;20193;-74
2021/12/28 03:31:55;;;;;;;6.57;1.00;;;20.20;99.90;;;;;;5052706;28;20190;-75
2021/12/28 03:34:26;;;;;;;5.32;0.98;;;20.20;99.90;;;;;;5052689;28;20189;-74
2021/12/28 03:36:58;;;;;;;4.13;0.73;;;20.20;99.90;;;;;;5052268;28;20218;-74
2021/12/28 03:39:29;;;;;;;5.18;0.80;;;20.20;99.90;;;;;;5053148;28;20202;-74
2021/12/28 03:42:00;;;;;;;4.95;1.17;;;20.20;99.90;;;;;;5052863;28;20217;-72
2021/12/28 03:44:30;;;;;;;8.02;1.15;;;20.30;99.90;;;;;;5052789;28;20277;-72
2021/12/28 03:47:01;;;;;;;4.85;1.02;;;20.30;99.90;;;;;;5052773;28;20194;-72
2021/12/28 03:49:32;;;;;;;6.25;0.82;;;20.30;99.90;;;;;;5052735;28;20239;-72
2021/12/28 03:52:06;;;;;;;5.53;0.80;;;20.40;99.90;;;;;;5036408;28;20199;-73
2021/12/28 03:54:37;;;;;;;3.78;0.80;;;20.40;99.90;;;;;;5033508;28;20190;-73
2021/12/28 03:57:08;;;;;;;8.05;1.10;;;20.50;99.90;;;;;;5039112;28;20699;-73
2021/12/28 03:59:40;;;;;;;5.13;0.80;;;20.50;99.90;;;;;;5052738;28;20673;-72
2021/12/28 04:02:10;;;;;;;4.47;0.70;;;20.50;99.90;;;;;;5052232;28;20693;-71
2021/12/28 04:04:41;;;;;;;4.97;0.70;;;20.50;99.90;;;;;;5047587;28;20186;-73
2021/12/28 04:07:18;;;;;;;7.63;1.13;;;20.70;99.90;;;;;;5032987;28;20953;-73
2021/12/28 04:10:01;;;;;;;5.00;0.90;;;20.90;99.90;;;;;;5046175;28;20274;-73
2021/12/28 04:12:32;;;;;;;5.75;1.13;;;21.10;99.90;;;;;;5052612;28;20189;-74
2021/12/28 04:15:04;;;;;;;5.38;0.73;;;21.30;99.90;;;;;;5052565;28;20641;-73
2021/12/28 04:17:37;;;;;;;3.72;0.90;;;21.30;99.90;;;;;;5052727;28;20193;-73
2021/12/28 04:20:11;;;;;;;9.10;0.90;;;21.50;99.90;;;;;;5052188;28;20190;-74
2021/12/28 04:22:44;;;;;;;11.40;1.20;;;21.60;99.90;;;;;;5052003;28;20252;-74
2021/12/28 04:25:16;;;;;;;7.38;1.00;;;21.80;99.90;;;;;;5052333;28;20197;-74
2021/12/28 04:27:48;;;;;;;4.68;0.70;;;21.70;99.90;;;;;;5047699;28;20288;-73
2021/12/28 04:30:19;;;;;;;4.70;0.90;;;21.30;99.90;;;;;;5052407;28;20243;-73
2021/12/28 04:32:50;;;;;;;3.30;0.70;;;21.00;99.90;;;;;;5051905;28;20185;-73
2021/12/28 04:35:21;;;;;;;5.63;1.15;;;20.50;99.90;;;;;;5052204;28;20186;-74
2021/12/28 04:37:53;;;;;;;3.38;0.70;;;20.20;99.90;;;;;;5049835;28;20217;-75
2021/12/28 04:40:24;;;;;;;3.92;0.80;;;20.00;99.90;;;;;;5053298;28;20194;-73
2021/12/28 04:42:55;;;;;;;4.53;0.85;;;19.80;99.90;;;;;;5051249;28;20209;-74
2021/12/28 04:45:25;;;;;;;4.82;0.90;;;19.70;99.90;;;;;;5049627;28;20190;-74
2021/12/28 04:47:56;;;;;;;3.70;0.70;;;19.60;99.90;;;;;;5050100;28;20196;-73
2021/12/28 04:50:27;;;;;;;4.53;0.65;;;19.50;99.90;;;;;;5051255;28;20190;-73
2021/12/28 04:53:07;;;;;;;8.55;1.10;;;19.30;99.90;;;;;;5050881;28;20197;-73
2021/12/28 04:55:39;;;;;;;5.88;1.20;;;19.30;99.90;;;;;;5051598;28;20198;-74
2021/12/28 04:58:10;;;;;;;5.18;0.95;;;19.40;99.90;;;;;;5050440;28;20186;-73
2021/12/28 05:00:42;;;;;;;10.70;0.95;;;19.50;99.90;;;;;;5050339;28;20248;-74
2021/12/28 05:03:13;;;;;;;4.93;1.00;;;19.60;99.90;;;;;;5051331;28;20212;-73
2021/12/28 05:05:45;;;;;;;6.00;0.93;;;19.70;99.90;;;;;;5039038;28;20182;-73
2021/12/28 05:08:19;;;;;;;8.18;1.20;;;19.70;99.90;;;;;;5055413;28;20231;-73
2021/12/28 05:10:50;;;;;;;3.83;1.00;;;19.90;99.90;;;;;;5051122;28;20221;-74
2021/12/28 05:13:22;;;;;;;7.35;1.02;;;20.20;99.90;;;;;;5051054;28;20618;-73
2021/12/28 05:15:53;;;;;;;3.63;0.90;;;20.50;99.90;;;;;;5054848;28;20542;-75
2021/12/28 05:18:24;;;;;;;6.65;1.20;;;20.80;99.90;;;;;;5054713;28;20193;-75
2021/12/28 05:20:54;;;;;;;3.80;0.85;;;21.00;99.90;;;;;;5055658;28;20182;-76
2021/12/28 05:23:27;;;;;;;2.15;0.65;;;21.20;99.90;;;;;;5055732;28;20934;-74
2021/12/28 05:25:58;;;;;;;5.88;1.02;;;21.20;99.90;;;;;;5051988;28;20186;-75
2021/12/28 05:28:29;;;;;;;4.70;0.90;;;21.20;99.90;;;;;;5054983;28;20603;-75
2021/12/28 05:30:59;;;;;;;6.72;0.82;;;21.00;99.90;;;;;;5051402;28;20622;-75
2021/12/28 05:33:30;;;;;;;5.72;0.93;;;20.80;99.90;;;;;;5052021;28;20186;-76
2021/12/28 05:36:00;;;;;;;5.20;0.73;;;20.70;99.90;;;;;;5054397;28;20194;-76
2021/12/28 05:38:33;;;;;;;2.70;0.70;;;20.90;99.90;;;;;;5054207;28;20206;-75
2021/12/28 05:41:05;;;;;;;6.15;1.00;;;21.10;99.90;;;;;;5055214;28;20197;-76
2021/12/28 05:43:36;;;;;;;6.78;0.55;;;21.10;99.90;;;;;;5050274;28;20215;-76
2021/12/28 05:46:07;;;;;;;6.40;0.70;;;21.20;99.90;;;;;;5054521;28;20193;-75
2021/12/28 05:48:38;;;;;;;6.47;0.70;;;21.30;99.90;;;;;;5054966;28;20201;-76
2021/12/28 05:51:08;;;;;;;5.07;0.65;;;21.30;99.90;;;;;;5054729;28;20185;-77
2021/12/28 05:53:41;;;;;;;5.30;0.75;;;21.30;99.90;;;;;;5054058;28;20676;-76
2021/12/28 05:56:12;;;;;;;2.92;0.82;;;21.30;99.90;;;;;;5035555;28;20210;-76
2021/12/28 05:58:46;;;;;;;5.13;0.63;;;21.30;99.90;;;;;;5035778;28;20625;-76
2021/12/28 06:01:17;;;;;;;7.60;0.90;;;21.20;99.90;;;;;;5055018;28;20200;-76
2021/12/28 06:03:47;;;;;;;4.88;0.57;;;21.10;99.90;;;;;;5054666;28;20225;-76
2021/12/28 06:06:19;;;;;;;4.75;0.70;;;21.10;99.90;;;;;;5054605;28;20577;-75
2021/12/28 06:08:53;;;;;;;4.00;0.70;;;21.20;99.90;;;;;;5055445;28;20190;-74
2021/12/28 06:11:24;;;;;;;3.95;0.70;;;21.20;99.90;;;;;;5055349;28;20279;-75
2021/12/28 06:13:54;;;;;;;7.30;1.00;;;21.10;99.90;;;;;;5053515;28;20186;-75
2021/12/28 06:16:25;;;;;;;5.63;0.98;;;21.00;99.90;;;;;;5054433;28;20205;-76
2021/12/28 06:18:56;;;;;;;4.82;0.80;;;21.00;99.90;;;;;;5054382;28;20252;-74
2021/12/28 06:21:27;;;;;;;2.80;0.60;;;21.00;99.90;;;;;;5054919;28;20189;-75
2021/12/28 06:24:00;;;;;;;5.80;0.73;;;21.00;99.90;;;;;;5054344;28;20583;-75
2021/12/28 06:26:31;;;;;;;5.10;0.90;;;20.90;99.90;;;;;;5054853;28;20615;-74
2021/12/28 06:29:03;;;;;;;6.13;0.90;;;20.80;99.90;;;;;;5051011;28;20651;-75
2021/12/28 06:31:34;;;;;;;5.57;1.20;;;20.90;99.90;;;;;;5054859;28;20715;-74
2021/12/28 06:34:07;;;;;;;5.13;0.70;;;20.90;99.90;;;;;;5054224;28;20603;-75
2021/12/28 06:36:38;;;;;;;5.97;0.80;;;20.70;99.90;;;;;;5054171;28;20221;-75
2021/12/28 06:39:11;;;;;;;8.65;1.15;;;20.40;99.90;;;;;;5054001;28;20243;-74
2021/12/28 06:41:42;;;;;;;7.15;0.90;;;20.40;99.90;;;;;;5054610;28;20205;-74
2021/12/28 06:44:16;;;;;;;5.97;1.10;;;20.10;99.90;;;;;;5053310;28;20208;-76
2021/12/28 06:46:49;;;;;;;5.90;1.02;;;19.90;99.90;;;;;;5053786;28;20205;-76
2021/12/28 06:49:20;;;;;;;8.68;1.08;;;19.70;99.90;;;;;;5051458;28;20193;-75
2021/12/28 06:51:51;;;;;;;5.90;1.17;;;19.50;99.90;;;;;;5052421;28;20711;-74
2021/12/28 06:54:24;;;;;;;5.82;1.00;;;19.30;99.90;;;;;;5053955;28;20190;-75
2021/12/28 06:56:54;;;;;;;5.78;1.00;;;19.20;99.90;;;;;;5047821;28;20197;-76
2021/12/28 06:59:25;;;;;;;6.45;1.10;;;19.20;99.90;;;;;;5053103;28;20255;-76
2021/12/28 07:01:58;;;;;;;7.55;0.90;;;19.10;99.90;;;;;;5053374;28;20182;-74
2021/12/28 07:04:29;;;;;;;9.63;0.90;;;19.20;99.90;;;;;;5052270;28;20320;-75
2021/12/28 07:06:59;;;;;;;7.97;0.80;;;19.20;99.90;;;;;;5052878;28;20201;-76
2021/12/28 07:09:32;;;;;;;3.42;0.88;;;19.20;99.90;;;;;;5052448;28;20638;-75
2021/12/28 07:12:08;;;;;;;6.22;0.82;;;19.40;99.90;;;;;;5053103;28;20190;-75
2021/12/28 07:14:40;;;;;;;4.97;1.00;;;19.50;99.90;;;;;;5053363;28;20212;-75
2021/12/28 07:17:10;;;;;;;6.38;0.82;;;19.50;99.90;;;;;;5052235;28;20194;-74
2021/12/28 07:19:41;;;;;;;6.25;1.10;;;19.50;99.90;;;;;;5050643;28;20186;-76
2021/12/28 07:22:12;;;;;;;9.30;0.95;;;19.50;99.90;;;;;;5046781;28;20201;-74
2021/12/28 07:24:45;;;;;;;4.82;0.90;;;19.50;99.90;;;;;;5052822;28;20230;-75
2021/12/28 07:27:15;;;;;;;7.72;0.80;;;19.40;99.90;;;;;;5051845;28;20194;-75
2021/12/28 07:29:46;;;;;;;5.70;0.95;;;19.40;99.90;;;;;;5053319;28;20247;-75
2021/12/28 07:32:17;;;;;;;6.15;0.80;;;19.40;99.90;;;;;;5053036;28;20243;-75
2021/12/28 07:34:49;;;;;;;7.15;0.90;;;19.40;99.90;;;;;;5053284;28;20201;-75
2021/12/28 07:37:23;;;;;;;4.70;0.73;;;19.50;99.90;;;;;;5052664;28;20228;-75
2021/12/28 07:39:55;;;;;;;3.55;0.70;;;19.40;99.90;;;;;;5053465;28;20194;-76
2021/12/28 07:42:26;;;;;;;3.75;0.65;;;19.50;99.90;;;;;;5051693;28;20187;-74
2021/12/28 07:44:57;;;;;;;5.78;0.70;;;19.40;99.90;;;;;;5051971;28;20293;-74
2021/12/28 07:47:28;;;;;;;3.67;0.60;;;19.40;99.90;;;;;;5040190;28;20197;-74
2021/12/28 07:49:58;;;;;;;2.70;0.57;;;19.40;99.90;;;;;;5052150;28;20190;-75
2021/12/28 07:52:29;;;;;;;3.72;0.65;;;19.40;99.90;;;;;;5052956;28;20197;-75
2021/12/28 07:55:02;;;;;;;6.18;0.90;;;19.50;99.90;;;;;;5052182;28;20718;-74
2021/12/28 07:57:32;;;;;;;4.40;0.63;;;19.60;99.90;;;;;;5052598;28;20638;-75
2021/12/28 08:00:04;;;;;;;5.63;0.80;;;19.70;99.90;;;;;;5051838;28;20231;-74
2021/12/28 08:02:35;;;;;;;5.53;0.70;;;19.60;99.90;;;;;;5037081;28;20212;-74
2021/12/28 08:05:07;;;;;;;2.92;0.60;;;19.50;99.90;;;;;;5052143;28;20696;-74
2021/12/28 08:07:38;;;;;;;6.45;0.90;;;19.50;99.90;;;;;;5052454;28;20189;-74
2021/12/28 08:10:13;;;;;;;6.82;0.85;;;19.50;99.90;;;;;;5051878;28;20225;-73
2021/12/28 08:12:44;;;;;;;4.88;0.80;;;19.60;99.90;;;;;;5039874;28;20651;-74
2021/12/28 08:15:15;;;;;;;4.22;0.60;;;19.60;99.90;;;;;;5052506;28;20259;-74
2021/12/28 08:17:46;;;;;;;5.00;0.82;;;19.50;99.90;;;;;;5033269;28;20255;-73
2021/12/28 08:20:19;;;;;;;4.10;0.90;;;19.50;99.90;;;;;;5050187;28;20194;-74
2021/12/28 08:22:50;;;;;;;4.35;0.70;;;19.40;99.90;;;;;;5052352;28;20235;-73
2021/12/28 08:25:23;;;;;;;5.00;0.80;;;19.30;99.90;;;;;;5052481;28;20221;-73
2021/12/28 08:27:54;;;;;;;4.47;1.00;;;19.20;99.90;;;;;;5052768;28;20509;-75
2021/12/28 08:30:26;;;;;;;5.85;0.80;;;19.20;99.90;;;;;;5052919;28;20598;-73
2021/12/28 08:32:57;;;;;;;5.30;0.90;;;19.10;99.90;;;;;;5052172;28;20193;-74
2021/12/28 08:35:28;;;;;;;4.90;1.00;;;19.10;99.90;;;;;;5052731;28;20201;-73
2021/12/28 08:38:00;;;;;;;9.90;1.23;;;19.10;99.90;;;;;;5052046;28;20205;-73
2021/12/28 08:40:32;;;;;;;3.85;1.15;;;19.20;99.90;;;;;;5053054;28;20205;-73
2021/12/28 08:43:06;;;;;;;4.78;0.80;;;19.10;99.90;;;;;;5055373;28;20186;-74
2021/12/28 08:45:41;;;;;;;3.65;0.82;;;19.10;99.90;;;;;;5056770;28;20267;-75
2021/12/28 08:48:13;;;;;;;6.78;0.90;;;19.10;99.90;;;;;;5049929;28;20633;-73
2021/12/28 08:50:48;;;;;;;4.70;0.95;;;19.00;99.90;;;;;;5056259;28;20194;-74
2021/12/28 08:53:22;;;;;;;5.95;0.80;;;18.90;99.90;;;;;;5056470;28;20197;-73
2021/12/28 08:55:56;;;;;;;6.43;0.93;;;18.90;99.90;;;;;;5056289;28;20189;-74
2021/12/28 08:58:27;;;;;;;5.00;1.10;;;18.80;99.90;;;;;;5056063;28;20197;-74
2021/12/28 09:00:58;;;;;;;6.78;1.23;;;18.80;99.90;;;;;;5055662;28;20213;-74
2021/12/28 09:03:28;;;;;;;3.63;0.75;;;18.80;99.90;;;;;;5055563;28;20197;-74
2021/12/28 09:06:00;;;;;;;3.75;0.90;;;18.70;99.90;;;;;;5055579;28;20197;-74
2021/12/28 09:08:31;;;;;;;7.40;0.80;;;18.70;99.90;;;;;;5056236;28;20629;-74
2021/12/28 09:11:04;;;;;;;7.00;0.70;;;18.60;99.90;;;;;;5055586;28;20237;-74
2021/12/28 09:13:34;;;;;;;3.92;0.70;;;18.60;99.90;;;;;;5055701;28;20189;-73
2021/12/28 09:16:05;;;;;;;4.68;0.88;;;18.60;99.90;;;;;;5055697;28;20190;-73
2021/12/28 09:18:36;;;;;;;6.50;1.13;;;18.70;99.90;;;;;;5055525;28;20637;-73
2021/12/28 09:21:07;;;;;;;8.35;1.02;;;18.60;99.90;;;;;;5055564;28;20190;-73
2021/12/28 09:23:38;;;;;;;5.32;1.13;;;18.60;99.90;;;;;;5055290;28;20186;-73
2021/12/28 09:26:11;;;;;;;4.50;1.00;;;18.60;99.90;;;;;;5055801;28;20198;-74
2021/12/28 09:28:42;;;;;;;7.57;1.00;;;18.60;99.90;;;;;;5055608;28;20200;-74
2021/12/28 09:31:12;;;;;;;7.53;1.00;;;18.60;99.90;;;;;;5055705;28;20263;-74
2021/12/28 09:33:43;;;;;;;4.60;0.90;;;18.60;99.90;;;;;;5056021;28;20193;-73
2021/12/28 09:36:15;;;;;;;6.28;1.08;;;18.60;99.90;;;;;;5054714;28;20186;-73
2021/12/28 09:38:46;;;;;;;5.32;1.08;;;18.60;99.90;;;;;;5055066;28;20251;-74
2021/12/28 09:41:24;;;;;;;3.90;0.80;;;18.60;99.90;;;;;;5055779;28;20189;-73
2021/12/28 09:43:55;;;;;;;5.07;0.77;;;18.70;99.90;;;;;;5054647;28;20259;-73
2021/12/28 09:46:26;;;;;;;4.03;0.73;;;18.60;99.90;;;;;;5055621;28;20661;-74
2021/12/28 09:48:56;;;;;;;3.28;0.85;;;18.70;99.90;;;;;;5055265;28;20198;-73
2021/12/28 09:51:27;;;;;;;5.47;0.90;;;18.70;99.90;;;;;;5054815;28;20194;-73
2021/12/28 09:53:59;;;;;;;5.70;0.70;;;18.70;99.90;;;;;;5053903;28;20239;-73
2021/12/28 09:56:33;;;;;;;6.53;1.00;;;18.80;99.90;;;;;;5055259;28;20531;-74
2021/12/28 09:59:04;;;;;;;8.75;1.10;;;18.80;99.90;;;;;;5054927;28;20193;-73
2021/12/28 10:01:35;;;;;;;3.95;1.00;;;18.80;99.90;;;;;;5055322;28;20189;-73
2021/12/28 10:04:06;;;;;;;6.43;0.82;;;18.80;99.90;;;;;;5054367;28;20201;-74
2021/12/28 10:06:36;;;;;;;6.15;0.93;;;18.90;99.90;;;;;;5051715;28;20194;-73
2021/12/28 10:09:12;;;;;;;7.65;1.00;;;18.90;99.90;;;;;;5054123;28;20642;-74
2021/12/28 10:11:48;;;;;;;4.95;0.90;;;19.00;99.90;;;;;;5053970;28;20233;-73
2021/12/28 10:14:21;;;;;;;3.58;0.80;;;19.00;99.90;;;;;;5035301;28;20198;-74
2021/12/28 10:16:53;;;;;;;5.68;0.90;;;19.00;99.90;;;;;;5035123;28;20236;-74
2021/12/28 10:19:36;;;;;;;4.97;0.90;;;19.00;99.90;;;;;;5049527;28;20559;-73
2021/12/28 10:22:32;;;;;;;6.72;0.90;;;19.10;99.90;;;;;;5054660;28;20751;-75
2021/12/28 10:25:06;;;;;;;5.43;0.70;;;19.00;99.90;;;;;;5053059;28;20210;-74
2021/12/28 10:27:40;;;;;;;4.50;0.80;;;19.00;99.90;;;;;;5054477;28;20264;-75
2021/12/28 10:30:15;;;;;;;5.28;0.98;;;19.00;99.90;;;;;;5053926;28;20186;-73
2021/12/28 10:32:47;;;;;;;5.32;0.88;;;19.00;99.90;;;;;;5054123;28;20190;-74
2021/12/28 10:35:21;;;;;;;3.85;0.88;;;19.00;99.90;;;;;;5054031;28;20195;-73
2021/12/28 10:37:54;;;;;;;3.63;0.73;;;18.90;99.90;;;;;;5053895;28;20221;-73
2021/12/28 10:40:27;;;;;;;5.50;0.88;;;18.90;99.90;;;;;;5057036;28;20197;-73
2021/12/28 10:43:03;;;;;;;6.57;0.90;;;18.90;99.90;;;;;;5053778;28;20197;-73
2021/12/28 10:45:39;;;;;;;2.78;0.70;;;18.90;99.90;;;;;;5054132;28;20270;-73
2021/12/28 10:48:16;;;;;;;6.82;1.08;;;19.00;99.90;;;;;;5043549;28;20202;-73
2021/12/28 10:50:49;;;;;;;6.00;0.93;;;19.00;99.90;;;;;;5038541;28;20186;-74
2021/12/28 10:53:32;;;;;;;8.45;0.75;;;19.00;99.90;;;;;;5049146;28;20552;-73
2021/12/28 10:56:04;;;;;;;4.53;0.80;;;19.00;99.90;;;;;;5054233;28;20199;-73
2021/12/28 10:58:41;;;;;;;3.40;0.77;;;18.90;99.90;;;;;;5053243;28;20200;-73
2021/12/28 11:01:15;;;;;;;4.15;0.90;;;18.90;99.90;;;;;;5044760;28;20617;-73
2021/12/28 11:03:47;;;;;;;3.05;0.60;;;18.90;99.90;;;;;;5051195;28;20194;-73
2021/12/28 11:06:20;;;;;;;6.70;0.88;;;18.90;99.90;;;;;;5052650;28;20264;-73
2021/12/28 11:08:53;;;;;;;4.22;0.80;;;18.80;99.90;;;;;;5052393;28;20201;-73
2021/12/28 11:11:25;;;;;;;6.00;1.00;;;18.80;99.90;;;;;;5042827;28;20240;-73
2021/12/28 11:14:01;;;;;;;3.65;0.73;;;18.80;99.90;;;;;;5052931;28;20190;-74
2021/12/28 11:16:33;;;;;;;4.43;0.95;;;18.70;99.90;;;;;;5052800;28;20555;-73
2021/12/28 11:19:05;;;;;;;2.92;0.63;;;18.70;99.90;;;;;;5052715;28;20625;-73
2021/12/28 11:21:38;;;;;;;4.43;0.70;;;18.70;99.90;;;;;;5039751;28;20191;-73
2021/12/28 11:24:10;;;;;;;4.18;1.00;;;18.70;99.90;;;;;;5047218;28;20193;-73
2021/12/28 11:26:42;;;;;;;3.20;0.77;;;18.70;99.90;;;;;;5053163;28;20198;-73
2021/12/28 11:29:15;;;;;;;4.28;0.70;;;18.60;99.90;;;;;;5051930;28;20190;-73
2021/12/28 11:31:50;;;;;;;3.13;0.50;;;18.60;99.90;;;;;;5052577;28;20198;-73
2021/12/28 11:34:24;;;;;;;5.35;0.63;;;18.50;99.90;;;;;;5037802;28;20193;-73
2021/12/28 11:36:58;;;;;;;4.93;0.70;;;18.50;99.90;;;;;;5050983;28;20225;-73
2021/12/28 11:39:30;;;;;;;5.45;0.70;;;18.50;99.90;;;;;;5049491;28;20212;-73
2021/12/28 11:42:01;;;;;;;4.43;0.88;;;18.50;99.90;;;;;;5049807;28;20263;-73
2021/12/28 11:44:35;;;;;;;3.88;0.77;;;18.50;99.90;;;;;;5052227;28;20216;-73
2021/12/28 11:47:08;;;;;;;4.50;0.80;;;18.50;99.90;;;;;;5051951;28;20220;-73
2021/12/28 11:49:41;;;;;;;4.00;0.70;;;18.50;99.90;;;;;;5052540;28;20247;-73
2021/12/28 11:52:13;;;;;;;3.00;0.55;;;18.40;99.90;;;;;;5052630;28;20645;-73
2021/12/28 11:54:47;;;;;;;5.05;0.80;;;18.40;99.90;;;;;;5052836;28;20190;-74
2021/12/28 11:57:20;;;;;;;6.28;1.00;;;18.40;99.90;;;;;;5052379;28;20560;-73
2021/12/28 11:59:58;;;;;;;4.90;0.60;;;18.30;99.90;;;;;;5052180;28;20186;-73
2021/12/28 12:02:39;;;;;;;5.18;0.60;;;18.30;99.90;;;;;;5048619;28;20189;-73
2021/12/28 12:05:17;;;;;;;1.17;0.50;;;18.30;99.90;;;;;;5049628;28;20244;-72
2021/12/28 12:07:49;;;;;;;4.50;0.73;;;18.20;99.90;;;;;;5052948;28;20189;-73
2021/12/28 12:10:37;;;;;;;1.73;0.50;;;18.20;99.90;;;;;;5053383;28;20680;-73
2021/12/28 12:13:24;;;;;;;2.33;0.60;;;18.20;99.90;;;;;;5051675;28;20181;-73
2021/12/28 12:15:59;;;;;;;4.18;0.80;;;18.20;99.90;;;;;;5036534;28;20201;-73
2021/12/28 12:18:31;;;;;;;2.35;0.70;;;18.10;99.90;;;;;;5052416;28;20582;-73
2021/12/28 12:21:06;;;;;;;2.38;0.70;;;18.10;99.90;;;;;;5052485;28;20227;-72
2021/12/28 12:23:51;;;;;;;4.70;1.02;;;18.10;99.90;;;;;;5052424;28;20201;-73
2021/12/28 12:26:33;;;;;;;3.85;0.60;;;18.10;99.90;;;;;;5041690;28;20243;-73
2021/12/28 12:29:06;;;;;;;2.55;0.60;;;18.20;99.90;;;;;;5052944;28;20198;-73
2021/12/28 12:31:43;;;;;;;1.60;0.47;;;18.30;99.90;;;;;;5052517;28;20190;-73
2021/12/28 12:34:34;;;;;;;2.65;0.70;;;18.30;99.90;;;;;;5048127;28;20197;-73
2021/12/28 12:37:16;;;;;;;4.47;0.80;;;18.40;99.90;;;;;;5052293;28;20684;-73
2021/12/28 12:39:55;;;;;;;3.22;0.90;;;18.40;99.90;;;;;;5052818;28;20247;-73
2021/12/28 12:42:26;;;;;;;3.97;0.82;;;18.50;99.90;;;;;;5052058;28;20193;-73
2021/12/28 12:44:56;;;;;;;5.03;0.70;;;18.60;99.90;;;;;;5051312;28;20213;-73
2021/12/28 12:47:30;;;;;;;4.07;0.95;;;18.60;99.90;;;;;;5052043;28;20194;-73
2021/12/28 12:50:10;;;;;;;5.80;0.90;;;18.70;99.90;;;;;;5049449;28;20255;-72
2021/12/28 12:52:41;;;;;;;2.90;0.90;;;18.60;99.90;;;;;;5052188;28;20559;-73
2021/12/28 12:55:14;;;;;;;3.95;0.80;;;18.60;99.90;;;;;;5052142;28;20190;-72
2021/12/28 12:57:45;;;;;;;5.82;0.93;;;18.60;99.90;;;;;;5052321;28;20654;-73
2021/12/28 13:00:20;;;;;;;4.47;1.00;;;18.50;99.90;;;;;;5051243;28;20193;-73
2021/12/28 13:03:02;;;;;;;4.63;0.90;;;18.50;99.90;;;;;;5047258;28;20198;-73
2021/12/28 13:05:43;;;;;;;7.45;1.00;;;18.40;99.90;;;;;;5052451;28;20229;-72
2021/12/28 13:08:15;;;;;;;5.90;0.98;;;18.30;99.90;;;;;;5052465;28;20201;-73
2021/12/28 13:10:45;;;;;;;5.82;0.82;;;18.20;99.90;;;;;;5052001;28;20267;-72
2021/12/28 13:13:16;;;;;;;5.13;0.95;;;18.20;99.90;;;;;;5051683;28;20189;-73
2021/12/28 13:15:47;;;;;;;4.78;1.15;;;18.10;99.90;;;;;;5051813;28;20185;-73